sensor_id;sensor_type;location;lat;lon;timestamp;pressure;altitude;pressure_sealevel;temperature;humidity
73151;BME280;61354;50.758;6.106;2023-01-08T00:01:40;98099.13;;;8.78;90.31
73151;BME280;61354;50.758;6.106;2023-01-08T00:04:06;98101.88;;;8.78;90.02
73151;BME280;61354;50.758;6.106;2023-01-08T00:06:31;98112.59;;;8.79;90.22
73151;BME280;61354;50.758;6.106;2023-01-08T00:08:57;98117.75;;;8.81;90.20
73151;BME280;61354;50.758;6.106;2023-01-08T00:11:22;98119.41;;;8.85;90.23
73151;BME280;61354;50.758;6.106;2023-01-08T00:13:47;98104.13;;;8.95;89.85
73151;BME280;61354;50.758;6.106;2023-01-08T00:16:15;98105.31;;;8.94;89.78
73151;BME280;61354;50.758;6.106;2023-01-08T00:18:42;98121.91;;;8.94;89.50
73151;BME280;61354;50.758;6.106;2023-01-08T00:21:08;98109.25;;;8.93;90.15
73151;BME280;61354;50.758;6.106;2023-01-08T00:23:34;98098.19;;;8.93;89.88
73151;BME280;61354;50.758;6.106;2023-01-08T00:26:06;98097.38;;;8.92;90.12
73151;BME280;61354;50.758;6.106;2023-01-08T00:28:32;98103.28;;;8.91;90.25
73151;BME280;61354;50.758;6.106;2023-01-08T00:30:57;98110.72;;;8.87;90.07
73151;BME280;61354;50.758;6.106;2023-01-08T00:33:23;98106.09;;;8.94;89.45
73151;BME280;61354;50.758;6.106;2023-01-08T00:35:48;98106.91;;;8.95;89.17
73151;BME280;61354;50.758;6.106;2023-01-08T00:38:14;98089.88;;;8.93;89.45
73151;BME280;61354;50.758;6.106;2023-01-08T00:40:39;98100.94;;;8.93;89.35
73151;BME280;61354;50.758;6.106;2023-01-08T00:43:06;98109.66;;;8.95;89.14
73151;BME280;61354;50.758;6.106;2023-01-08T00:45:31;98100.56;;;8.94;89.04
73151;BME280;61354;50.758;6.106;2023-01-08T00:47:57;98099.03;;;8.97;89.09
73151;BME280;61354;50.758;6.106;2023-01-08T00:50:23;98092.69;;;8.96;88.99
73151;BME280;61354;50.758;6.106;2023-01-08T00:52:49;98097.00;;;8.94;88.85
73151;BME280;61354;50.758;6.106;2023-01-08T00:55:14;98101.38;;;8.95;89.05
73151;BME280;61354;50.758;6.106;2023-01-08T00:57:40;98107.69;;;8.95;88.85
73151;BME280;61354;50.758;6.106;2023-01-08T01:00:08;98097.44;;;8.96;88.69
73151;BME280;61354;50.758;6.106;2023-01-08T01:02:37;98097.44;;;8.96;88.68
73151;BME280;61354;50.758;6.106;2023-01-08T01:05:04;98094.69;;;8.96;89.00
73151;BME280;61354;50.758;6.106;2023-01-08T01:07:30;98093.50;;;8.97;89.01
73151;BME280;61354;50.758;6.106;2023-01-08T01:09:56;98102.97;;;8.96;88.64
73151;BME280;61354;50.758;6.106;2023-01-08T01:12:21;98106.16;;;8.98;88.34
73151;BME280;61354;50.758;6.106;2023-01-08T01:14:47;98101.06;;;9.00;88.31
73151;BME280;61354;50.758;6.106;2023-01-08T01:17:12;98098.28;;;9.00;88.11
73151;BME280;61354;50.758;6.106;2023-01-08T01:19:38;98090.41;;;9.02;88.36
73151;BME280;61354;50.758;6.106;2023-01-08T01:22:05;98073.03;;;9.05;88.01
73151;BME280;61354;50.758;6.106;2023-01-08T01:24:30;98081.72;;;9.04;88.28
73151;BME280;61354;50.758;6.106;2023-01-08T01:26:55;98075.38;;;9.03;89.28
73151;BME280;61354;50.758;6.106;2023-01-08T01:29:23;98079.72;;;9.01;88.58
73151;BME280;61354;50.758;6.106;2023-01-08T01:31:49;98078.09;;;9.00;88.91
73151;BME280;61354;50.758;6.106;2023-01-08T01:34:14;98069.00;;;8.99;88.65
73151;BME280;61354;50.758;6.106;2023-01-08T01:36:40;98061.84;;;8.98;88.59
73151;BME280;61354;50.758;6.106;2023-01-08T01:39:05;98065.44;;;8.99;88.39
73151;BME280;61354;50.758;6.106;2023-01-08T01:41:42;98072.19;;;9.01;88.56
73151;BME280;61354;50.758;6.106;2023-01-08T01:44:43;98077.75;;;9.01;88.53
73151;BME280;61354;50.758;6.106;2023-01-08T01:47:36;98071.03;;;9.02;88.62
73151;BME280;61354;50.758;6.106;2023-01-08T01:50:14;98057.16;;;9.02;88.26
73151;BME280;61354;50.758;6.106;2023-01-08T01:52:45;98066.66;;;9.01;88.50
73151;BME280;61354;50.758;6.106;2023-01-08T01:55:13;98058.34;;;9.01;88.64
73151;BME280;61354;50.758;6.106;2023-01-08T01:57:44;98052.38;;;8.99;88.42
73151;BME280;61354;50.758;6.106;2023-01-08T02:00:13;98060.69;;;8.99;88.68
73151;BME280;61354;50.758;6.106;2023-01-08T02:02:40;98061.84;;;8.98;88.49
73151;BME280;61354;50.758;6.106;2023-01-08T02:05:06;98064.63;;;8.98;88.25
73151;BME280;61354;50.758;6.106;2023-01-08T02:07:36;98065.81;;;8.97;88.49
73151;BME280;61354;50.758;6.106;2023-01-08T02:10:09;98057.06;;;8.95;88.57
73151;BME280;61354;50.758;6.106;2023-01-08T02:12:41;98068.13;;;8.95;88.44
73151;BME280;61354;50.758;6.106;2023-01-08T02:18:09;98060.28;;;8.97;88.31
73151;BME280;61354;50.758;6.106;2023-01-08T02:20:43;98064.22;;;8.96;88.44
73151;BME280;61354;50.758;6.106;2023-01-08T02:23:19;98046.44;;;8.97;88.15
73151;BME280;61354;50.758;6.106;2023-01-08T02:26:04;98053.16;;;8.96;88.45
73151;BME280;61354;50.758;6.106;2023-01-08T02:28:37;98054.69;;;8.93;88.21
73151;BME280;61354;50.758;6.106;2023-01-08T02:31:04;98045.19;;;8.94;88.40
73151;BME280;61354;50.758;6.106;2023-01-08T02:33:31;98038.47;;;8.95;88.42
73151;BME280;61354;50.758;6.106;2023-01-08T02:38:47;98038.06;;;8.93;88.21
73151;BME280;61354;50.758;6.106;2023-01-08T02:41:13;98038.44;;;8.92;88.10
73151;BME280;61354;50.758;6.106;2023-01-08T02:43:49;98035.69;;;8.92;88.40
73151;BME280;61354;50.758;6.106;2023-01-08T02:46:24;98030.16;;;8.92;87.72
73151;BME280;61354;50.758;6.106;2023-01-08T02:49:00;98021.84;;;8.92;87.84
73151;BME280;61354;50.758;6.106;2023-01-08T02:51:55;98011.97;;;8.94;88.02
73151;BME280;61354;50.758;6.106;2023-01-08T02:54:25;98004.06;;;8.93;87.93
73151;BME280;61354;50.758;6.106;2023-01-08T02:56:58;98008.00;;;8.92;87.47
73151;BME280;61354;50.758;6.106;2023-01-08T02:59:26;98019.09;;;8.95;87.61
73151;BME280;61354;50.758;6.106;2023-01-08T03:01:54;98023.84;;;8.95;87.63
73151;BME280;61354;50.758;6.106;2023-01-08T03:04:22;98019.53;;;8.98;86.95
73151;BME280;61354;50.758;6.106;2023-01-08T03:06:49;98010.78;;;8.95;86.78
73151;BME280;61354;50.758;6.106;2023-01-08T03:09:15;98017.16;;;8.96;86.68
73151;BME280;61354;50.758;6.106;2023-01-08T03:11:51;98021.50;;;8.97;86.73
73151;BME280;61354;50.758;6.106;2023-01-08T03:14:42;98025.88;;;8.98;86.66
73151;BME280;61354;50.758;6.106;2023-01-08T03:17:19;98018.34;;;8.99;86.53
73151;BME280;61354;50.758;6.106;2023-01-08T03:19:49;98005.63;;;8.94;87.50
73151;BME280;61354;50.758;6.106;2023-01-08T03:22:18;98017.44;;;8.91;88.26
73151;BME280;61354;50.758;6.106;2023-01-08T03:24:46;98013.44;;;8.85;88.99
73151;BME280;61354;50.758;6.106;2023-01-08T03:27:17;98025.25;;;8.82;90.30
73151;BME280;61354;50.758;6.106;2023-01-08T03:29:45;98022.69;;;8.69;91.60
73151;BME280;61354;50.758;6.106;2023-01-08T03:32:15;98019.88;;;8.66;91.76
73151;BME280;61354;50.758;6.106;2023-01-08T03:34:43;98022.56;;;8.62;92.10
73151;BME280;61354;50.758;6.106;2023-01-08T03:37:10;98013.91;;;8.64;92.21
73151;BME280;61354;50.758;6.106;2023-01-08T03:42:16;98001.94;;;8.56;93.24
73151;BME280;61354;50.758;6.106;2023-01-08T03:44:44;98007.41;;;8.53;94.12
73151;BME280;61354;50.758;6.106;2023-01-08T03:47:10;97997.06;;;8.46;93.73
73151;BME280;61354;50.758;6.106;2023-01-08T03:49:37;97993.97;;;8.51;93.25
73151;BME280;61354;50.758;6.106;2023-01-08T03:52:05;98000.22;;;8.48;93.59
73151;BME280;61354;50.758;6.106;2023-01-08T03:54:34;97992.34;;;8.50;92.88
73151;BME280;61354;50.758;6.106;2023-01-08T03:56:59;98001.09;;;8.52;93.26
73151;BME280;61354;50.758;6.106;2023-01-08T03:59:25;98000.28;;;8.52;93.15
73151;BME280;61354;50.758;6.106;2023-01-08T04:01:50;98004.91;;;8.44;92.64
73151;BME280;61354;50.758;6.106;2023-01-08T04:04:16;98001.41;;;8.47;91.07
73151;BME280;61354;50.758;6.106;2023-01-08T04:06:41;98011.72;;;8.50;91.50
73151;BME280;61354;50.758;6.106;2023-01-08T04:09:07;97997.06;;;8.46;92.50
73151;BME280;61354;50.758;6.106;2023-01-08T04:11:32;97989.50;;;8.43;92.71
73151;BME280;61354;50.758;6.106;2023-01-08T04:13:58;97993.09;;;8.47;92.90
73151;BME280;61354;50.758;6.106;2023-01-08T04:16:23;97983.97;;;8.43;93.47
73151;BME280;61354;50.758;6.106;2023-01-08T04:18:49;97985.13;;;8.42;93.54
73151;BME280;61354;50.758;6.106;2023-01-08T04:21:14;97976.84;;;8.42;93.25
73151;BME280;61354;50.758;6.106;2023-01-08T04:23:39;97972.34;;;8.34;95.45
73151;BME280;61354;50.758;6.106;2023-01-08T04:26:06;97978.16;;;8.29;96.49
73151;BME280;61354;50.758;6.106;2023-01-08T04:28:33;97973.69;;;8.20;96.73
73151;BME280;61354;50.758;6.106;2023-01-08T04:30:58;97973.19;;;8.15;97.51
73151;BME280;61354;50.758;6.106;2023-01-08T04:33:24;97983.16;;;8.19;96.23
73151;BME280;61354;50.758;6.106;2023-01-08T04:35:50;97970.50;;;8.18;95.83
73151;BME280;61354;50.758;6.106;2023-01-08T04:38:16;97965.75;;;8.19;96.17
73151;BME280;61354;50.758;6.106;2023-01-08T04:40:41;97968.09;;;8.17;95.74
73151;BME280;61354;50.758;6.106;2023-01-08T04:43:07;97964.13;;;8.14;96.12
73151;BME280;61354;50.758;6.106;2023-01-08T04:45:33;97957.00;;;8.13;95.92
73151;BME280;61354;50.758;6.106;2023-01-08T04:47:58;97956.13;;;8.09;95.58
73151;BME280;61354;50.758;6.106;2023-01-08T04:50:24;97955.34;;;8.09;95.53
73151;BME280;61354;50.758;6.106;2023-01-08T04:52:50;97953.72;;;8.08;95.08
73151;BME280;61354;50.758;6.106;2023-01-08T04:55:16;97946.22;;;8.08;94.69
73151;BME280;61354;50.758;6.106;2023-01-08T04:57:42;97943.84;;;8.07;94.78
73151;BME280;61354;50.758;6.106;2023-01-08T05:00:07;97940.28;;;8.06;94.33
73151;BME280;61354;50.758;6.106;2023-01-08T05:02:33;97942.59;;;8.04;94.12
73151;BME280;61354;50.758;6.106;2023-01-08T05:04:59;97941.75;;;8.00;94.75
73151;BME280;61354;50.758;6.106;2023-01-08T05:07:24;97933.09;;;8.02;93.63
73151;BME280;61354;50.758;6.106;2023-01-08T05:09:50;97940.28;;;8.06;93.41
73151;BME280;61354;50.758;6.106;2023-01-08T05:12:16;97934.81;;;8.10;92.88
73151;BME280;61354;50.758;6.106;2023-01-08T05:14:41;97936.47;;;8.14;91.81
73151;BME280;61354;50.758;6.106;2023-01-08T05:17:06;97935.28;;;8.15;92.03
73151;BME280;61354;50.758;6.106;2023-01-08T05:19:32;97941.25;;;8.17;91.48
73151;BME280;61354;50.758;6.106;2023-01-08T05:21:57;97934.13;;;8.16;91.46
73151;BME280;61354;50.758;6.106;2023-01-08T05:24:23;97926.25;;;8.18;90.61
73151;BME280;61354;50.758;6.106;2023-01-08T05:26:48;97929.03;;;8.18;90.57
73151;BME280;61354;50.758;6.106;2023-01-08T05:29:14;97930.28;;;8.25;89.51
73151;BME280;61354;50.758;6.106;2023-01-08T05:31:40;97926.66;;;8.20;90.43
73151;BME280;61354;50.758;6.106;2023-01-08T05:34:05;97928.28;;;8.21;90.29
73151;BME280;61354;50.758;6.106;2023-01-08T05:36:31;97927.91;;;8.23;90.39
73151;BME280;61354;50.758;6.106;2023-01-08T05:38:56;97938.19;;;8.22;90.33
73151;BME280;61354;50.758;6.106;2023-01-08T05:41:22;97925.56;;;8.25;89.63
73151;BME280;61354;50.758;6.106;2023-01-08T05:43:47;97929.88;;;8.22;89.65
73151;BME280;61354;50.758;6.106;2023-01-08T05:46:13;97924.69;;;8.21;89.51
73151;BME280;61354;50.758;6.106;2023-01-08T05:48:38;97935.09;;;8.28;89.35
73151;BME280;61354;50.758;6.106;2023-01-08T05:51:04;97942.66;;;8.31;88.78
73151;BME280;61354;50.758;6.106;2023-01-08T05:53:30;97952.69;;;8.39;87.97
73151;BME280;61354;50.758;6.106;2023-01-08T05:55:58;97973.22;;;8.38;89.20
73151;BME280;61354;50.758;6.106;2023-01-08T05:58:24;97999.00;;;8.22;91.00
73151;BME280;61354;50.758;6.106;2023-01-08T06:00:51;98016.50;;;7.03;95.23
73151;BME280;61354;50.758;6.106;2023-01-08T06:03:20;97997.16;;;6.84;97.01
73151;BME280;61354;50.758;6.106;2023-01-08T06:05:45;98002.31;;;6.85;99.05
73151;BME280;61354;50.758;6.106;2023-01-08T06:08:10;97995.06;;;6.96;99.35
73151;BME280;61354;50.758;6.106;2023-01-08T06:10:37;97993.13;;;6.97;98.12
73151;BME280;61354;50.758;6.106;2023-01-08T06:13:06;97989.25;;;6.82;98.77
73151;BME280;61354;50.758;6.106;2023-01-08T06:15:31;97991.78;;;6.91;98.19
73151;BME280;61354;50.758;6.106;2023-01-08T06:18:01;98007.31;;;6.80;98.74
73151;BME280;61354;50.758;6.106;2023-01-08T06:20:27;98001.78;;;6.80;99.10
73151;BME280;61354;50.758;6.106;2023-01-08T06:22:52;97999.84;;;6.80;99.78
73151;BME280;61354;50.758;6.106;2023-01-08T06:25:18;97995.38;;;6.76;98.95
73151;BME280;61354;50.758;6.106;2023-01-08T06:27:43;98005.53;;;6.71;98.97
73151;BME280;61354;50.758;6.106;2023-01-08T06:30:09;97996.72;;;6.82;98.90
73151;BME280;61354;50.758;6.106;2023-01-08T06:32:35;97999.47;;;6.82;98.06
73151;BME280;61354;50.758;6.106;2023-01-08T06:35:00;98002.81;;;6.91;97.01
73151;BME280;61354;50.758;6.106;2023-01-08T06:37:26;98010.88;;;6.80;98.25
73151;BME280;61354;50.758;6.106;2023-01-08T06:39:51;98001.88;;;6.83;98.55
73151;BME280;61354;50.758;6.106;2023-01-08T06:42:17;98011.41;;;6.86;99.20
73151;BME280;61354;50.758;6.106;2023-01-08T06:44:42;98006.31;;;6.88;97.73
73151;BME280;61354;50.758;6.106;2023-01-08T06:47:08;98008.25;;;6.87;98.07
73151;BME280;61354;50.758;6.106;2023-01-08T06:49:33;98004.34;;;6.88;97.32
73151;BME280;61354;50.758;6.106;2023-01-08T06:51:58;98002.75;;;6.87;97.46
73151;BME280;61354;50.758;6.106;2023-01-08T06:54:24;97996.59;;;6.94;96.12
73151;BME280;61354;50.758;6.106;2023-01-08T06:56:49;97998.56;;;6.93;97.15
73151;BME280;61354;50.758;6.106;2023-01-08T06:59:15;98009.13;;;6.91;97.13
73151;BME280;61354;50.758;6.106;2023-01-08T07:01:40;98006.31;;;6.88;97.24
73151;BME280;61354;50.758;6.106;2023-01-08T07:04:05;97997.16;;;6.84;98.11
73151;BME280;61354;50.758;6.106;2023-01-08T07:06:31;98001.06;;;6.83;98.27
73151;BME280;61354;50.758;6.106;2023-01-08T07:08:56;98003.84;;;6.83;98.43
73151;BME280;61354;50.758;6.106;2023-01-08T07:11:22;98004.28;;;6.85;98.54
73151;BME280;61354;50.758;6.106;2023-01-08T07:13:47;98008.56;;;6.82;97.86
73151;BME280;61354;50.758;6.106;2023-01-08T07:16:13;98001.78;;;6.80;97.77
73151;BME280;61354;50.758;6.106;2023-01-08T07:18:39;98004.13;;;6.78;98.24
73151;BME280;61354;50.758;6.106;2023-01-08T07:21:06;98003.31;;;6.77;98.81
73151;BME280;61354;50.758;6.106;2023-01-08T07:23:33;98004.75;;;6.71;99.61
73151;BME280;61354;50.758;6.106;2023-01-08T07:26:03;98003.97;;;6.70;99.07
73151;BME280;61354;50.758;6.106;2023-01-08T07:28:29;98003.06;;;6.66;99.33
73151;BME280;61354;50.758;6.106;2023-01-08T07:30:54;97995.16;;;6.65;98.29
73151;BME280;61354;50.758;6.106;2023-01-08T07:33:20;97989.75;;;6.68;97.79
73151;BME280;61354;50.758;6.106;2023-01-08T07:35:53;97993.63;;;6.67;98.00
73151;BME280;61354;50.758;6.106;2023-01-08T07:38:19;97997.84;;;6.61;98.41
73151;BME280;61354;50.758;6.106;2023-01-08T07:40:45;98004.53;;;6.60;98.69
73151;BME280;61354;50.758;6.106;2023-01-08T07:43:11;97992.69;;;6.60;97.83
73151;BME280;61354;50.758;6.106;2023-01-08T07:45:37;97986.22;;;6.52;98.42
73151;BME280;61354;50.758;6.106;2023-01-08T07:48:03;97990.13;;;6.51;98.28
73151;BME280;61354;50.758;6.106;2023-01-08T07:50:29;97984.16;;;6.49;98.30
73151;BME280;61354;50.758;6.106;2023-01-08T07:52:58;97983.75;;;6.47;98.14
73151;BME280;61354;50.758;6.106;2023-01-08T07:55:24;97985.97;;;6.41;98.60
73151;BME280;61354;50.758;6.106;2023-01-08T07:57:50;97977.59;;;6.38;98.56
73151;BME280;61354;50.758;6.106;2023-01-08T08:00:16;97981.09;;;6.35;98.76
73151;BME280;61354;50.758;6.106;2023-01-08T08:02:41;97981.81;;;6.32;98.26
73151;BME280;61354;50.758;6.106;2023-01-08T08:05:07;97978.16;;;6.28;98.61
73151;BME280;61354;50.758;6.106;2023-01-08T08:07:32;97966.75;;;6.29;98.80
73151;BME280;61354;50.758;6.106;2023-01-08T08:09:58;97967.84;;;6.25;98.89
73151;BME280;61354;50.758;6.106;2023-01-08T08:12:24;97965.53;;;6.27;98.96
73151;BME280;61354;50.758;6.106;2023-01-08T08:14:49;97966.75;;;6.29;98.56
73151;BME280;61354;50.758;6.106;2023-01-08T08:17:15;97967.13;;;6.28;98.51
73151;BME280;61354;50.758;6.106;2023-01-08T08:19:40;97959.66;;;6.28;98.91
73151;BME280;61354;50.758;6.106;2023-01-08T08:22:08;97962.41;;;6.28;98.62
73151;BME280;61354;50.758;6.106;2023-01-08T08:24:34;97954.53;;;6.27;98.72
73151;BME280;61354;50.758;6.106;2023-01-08T08:26:59;97954.06;;;6.25;98.94
73151;BME280;61354;50.758;6.106;2023-01-08T08:29:24;97944.53;;;6.22;98.97
73151;BME280;61354;50.758;6.106;2023-01-08T08:31:50;97948.13;;;6.22;98.97
73151;BME280;61354;50.758;6.106;2023-01-08T08:34:15;97939.13;;;6.26;98.88
73151;BME280;61354;50.758;6.106;2023-01-08T08:36:41;97941.63;;;6.31;99.02
73151;BME280;61354;50.758;6.106;2023-01-08T08:39:06;97936.81;;;6.28;98.79
73151;BME280;61354;50.758;6.106;2023-01-08T08:41:32;97931.72;;;6.30;99.11
73151;BME280;61354;50.758;6.106;2023-01-08T08:43:57;97936.16;;;6.34;98.69
73151;BME280;61354;50.758;6.106;2023-01-08T08:46:23;97935.44;;;6.37;97.84
73151;BME280;61354;50.758;6.106;2023-01-08T08:48:49;97926.09;;;6.42;97.64
73151;BME280;61354;50.758;6.106;2023-01-08T08:51:15;97923.00;;;6.43;98.03
73151;BME280;61354;50.758;6.106;2023-01-08T08:53:40;97919.16;;;6.48;97.56
73151;BME280;61354;50.758;6.106;2023-01-08T08:56:06;97915.31;;;6.53;97.31
73151;BME280;61354;50.758;6.106;2023-01-08T08:58:31;97912.25;;;6.58;97.05
73151;BME280;61354;50.758;6.106;2023-01-08T09:01:01;97912.41;;;6.65;96.48
73151;BME280;61354;50.758;6.106;2023-01-08T09:03:30;97918.09;;;6.72;96.00
73151;BME280;61354;50.758;6.106;2023-01-08T09:05:56;97915.03;;;6.77;95.52
73151;BME280;61354;50.758;6.106;2023-01-08T09:08:21;97912.78;;;6.83;95.72
73151;BME280;61354;50.758;6.106;2023-01-08T09:10:47;97917.59;;;6.86;95.76
73151;BME280;61354;50.758;6.106;2023-01-08T09:13:12;97923.19;;;6.89;95.38
73151;BME280;61354;50.758;6.106;2023-01-08T09:15:38;97923.66;;;6.95;95.32
73151;BME280;61354;50.758;6.106;2023-01-08T09:18:04;97910.03;;;7.02;95.08
73151;BME280;61354;50.758;6.106;2023-01-08T09:20:29;97914.81;;;7.05;94.91
73151;BME280;61354;50.758;6.106;2023-01-08T09:22:57;97914.94;;;7.12;94.05
73151;BME280;61354;50.758;6.106;2023-01-08T09:25:22;97909.56;;;7.19;93.51
73151;BME280;61354;50.758;6.106;2023-01-08T09:27:48;97912.03;;;7.25;93.48
73151;BME280;61354;50.758;6.106;2023-01-08T09:30:13;97904.59;;;7.29;92.92
73151;BME280;61354;50.758;6.106;2023-01-08T09:32:39;97905.47;;;7.33;93.13
73151;BME280;61354;50.758;6.106;2023-01-08T09:35:05;97907.63;;;7.43;92.60
73151;BME280;61354;50.758;6.106;2023-01-08T09:37:30;97909.72;;;7.50;93.38
73151;BME280;61354;50.758;6.106;2023-01-08T09:39:56;97901.69;;;7.64;91.98
73151;BME280;61354;50.758;6.106;2023-01-08T09:42:24;97893.16;;;7.72;92.43
73151;BME280;61354;50.758;6.106;2023-01-08T09:44:52;97886.97;;;7.83;91.70
73151;BME280;61354;50.758;6.106;2023-01-08T09:47:29;97875.38;;;7.96;91.23
73151;BME280;61354;50.758;6.106;2023-01-08T09:50:02;97877.09;;;8.05;90.60
73151;BME280;61354;50.758;6.106;2023-01-08T09:52:30;97871.84;;;8.00;90.66
73151;BME280;61354;50.758;6.106;2023-01-08T09:54:56;97871.56;;;8.05;90.43
73151;BME280;61354;50.758;6.106;2023-01-08T09:57:21;97867.22;;;8.07;89.02
73151;BME280;61354;50.758;6.106;2023-01-08T09:59:48;97866.09;;;8.12;89.28
73151;BME280;61354;50.758;6.106;2023-01-08T10:02:19;97856.28;;;8.14;88.41
73151;BME280;61354;50.758;6.106;2023-01-08T10:04:49;97855.16;;;8.19;88.16
73151;BME280;61354;50.758;6.106;2023-01-08T10:07:20;97859.94;;;8.22;88.26
73151;BME280;61354;50.758;6.106;2023-01-08T10:09:47;97861.53;;;8.23;88.69
73151;BME280;61354;50.758;6.106;2023-01-08T10:12:15;97856.75;;;8.20;87.50
73151;BME280;61354;50.758;6.106;2023-01-08T10:14:44;97851.72;;;8.26;88.27
73151;BME280;61354;50.758;6.106;2023-01-08T10:19:50;97853.69;;;8.29;88.04
73151;BME280;61354;50.758;6.106;2023-01-08T10:22:17;97845.00;;;8.27;87.93
73151;BME280;61354;50.758;6.106;2023-01-08T10:24:44;97838.72;;;8.30;88.09
73151;BME280;61354;50.758;6.106;2023-01-08T10:27:13;97833.59;;;8.32;88.97
73151;BME280;61354;50.758;6.106;2023-01-08T10:29:40;97834.03;;;8.34;90.59
73151;BME280;61354;50.758;6.106;2023-01-08T10:32:14;97825.31;;;8.32;89.82
73151;BME280;61354;50.758;6.106;2023-01-08T10:34:49;97831.69;;;8.36;90.11
73151;BME280;61354;50.758;6.106;2023-01-08T10:39:50;97823.84;;;8.38;89.29
73151;BME280;61354;50.758;6.106;2023-01-08T10:42:18;97825.06;;;8.40;89.49
73151;BME280;61354;50.758;6.106;2023-01-08T10:44:53;97815.22;;;8.43;89.79
73151;BME280;61354;50.758;6.106;2023-01-08T10:47:21;97818.38;;;8.45;89.22
73151;BME280;61354;50.758;6.106;2023-01-08T10:49:47;97817.59;;;8.44;88.61
73151;BME280;61354;50.758;6.106;2023-01-08T10:54:49;97801.00;;;8.44;88.58
73151;BME280;61354;50.758;6.106;2023-01-08T10:57:26;97801.03;;;8.48;87.72
73151;BME280;61354;50.758;6.106;2023-01-08T10:59:53;97811.38;;;8.51;88.19
73151;BME280;61354;50.758;6.106;2023-01-08T11:02:38;97816.47;;;8.49;87.79
73151;BME280;61354;50.758;6.106;2023-01-08T11:05:05;97803.75;;;8.44;86.10
73151;BME280;61354;50.758;6.106;2023-01-08T11:07:33;97809.56;;;8.36;85.35
73151;BME280;61354;50.758;6.106;2023-01-08T11:10:02;97811.91;;;8.34;85.34
73151;BME280;61354;50.758;6.106;2023-01-08T11:12:37;97819.72;;;8.28;84.84
73151;BME280;61354;50.758;6.106;2023-01-08T11:15:28;97823.63;;;8.23;83.69
73151;BME280;61354;50.758;6.106;2023-01-08T11:18:03;97812.44;;;8.13;84.42
73151;BME280;61354;50.758;6.106;2023-01-08T11:20:29;97816.28;;;8.08;85.21
73151;BME280;61354;50.758;6.106;2023-01-08T11:23:18;97802.91;;;8.10;85.94
73151;BME280;61354;50.758;6.106;2023-01-08T11:26:07;97798.97;;;8.11;85.06
73151;BME280;61354;50.758;6.106;2023-01-08T11:28:55;97807.19;;;8.08;86.46
73151;BME280;61354;50.758;6.106;2023-01-08T11:31:43;97805.16;;;8.01;86.74
73151;BME280;61354;50.758;6.106;2023-01-08T11:37:21;97796.94;;;8.08;87.28
73151;BME280;61354;50.758;6.106;2023-01-08T11:39:50;97798.22;;;8.14;86.81
73151;BME280;61354;50.758;6.106;2023-01-08T11:42:30;97795.13;;;8.19;85.80
73151;BME280;61354;50.758;6.106;2023-01-08T11:45:04;97783.38;;;8.26;85.31
73151;BME280;61354;50.758;6.106;2023-01-08T11:50:23;97782.75;;;8.40;85.39
73151;BME280;61354;50.758;6.106;2023-01-08T11:56:06;97780.69;;;8.63;81.85
73151;BME280;61354;50.758;6.106;2023-01-08T12:09:42;97761.78;;;8.73;78.15
73151;BME280;61354;50.758;6.106;2023-01-08T12:15:18;97753.19;;;8.81;77.00
73151;BME280;61354;50.758;6.106;2023-01-08T12:21:44;97742.91;;;8.82;77.55
73151;BME280;61354;50.758;6.106;2023-01-08T12:27:11;97732.50;;;8.68;77.12
73151;BME280;61354;50.758;6.106;2023-01-08T12:35:38;97729.41;;;8.77;76.29
73151;BME280;61354;50.758;6.106;2023-01-08T12:38:20;97723.44;;;8.75;76.15
73151;BME280;61354;50.758;6.106;2023-01-08T12:40:55;97733.34;;;8.72;77.24
73151;BME280;61354;50.758;6.106;2023-01-08T12:43:30;97719.84;;;8.70;76.55
73151;BME280;61354;50.758;6.106;2023-01-08T12:45:59;97723.81;;;8.69;76.44
73151;BME280;61354;50.758;6.106;2023-01-08T12:48:29;97719.84;;;8.67;76.00
73151;BME280;61354;50.758;6.106;2023-01-08T12:57:18;97715.03;;;8.60;76.74
73151;BME280;61354;50.758;6.106;2023-01-08T12:59:59;97702.47;;;8.70;76.07
73151;BME280;61354;50.758;6.106;2023-01-08T13:02:55;97700.47;;;8.67;77.07
73151;BME280;61354;50.758;6.106;2023-01-08T13:07:53;97706.44;;;8.73;75.89
73151;BME280;61354;50.758;6.106;2023-01-08T13:10:52;97704.06;;;8.71;77.27
73151;BME280;61354;50.758;6.106;2023-01-08T13:13:28;97708.03;;;8.74;76.72
73151;BME280;61354;50.758;6.106;2023-01-08T13:18:30;97693.72;;;8.64;75.98
73151;BME280;61354;50.758;6.106;2023-01-08T13:20:57;97694.94;;;8.70;76.56
73151;BME280;61354;50.758;6.106;2023-01-08T13:23:26;97700.47;;;8.70;76.65
73151;BME280;61354;50.758;6.106;2023-01-08T13:25:54;97689.41;;;8.70;76.37
73151;BME280;61354;50.758;6.106;2023-01-08T13:30:48;97687.00;;;8.65;75.84
73151;BME280;61354;50.758;6.106;2023-01-08T13:36:23;97681.06;;;8.63;76.43
73151;BME280;61354;50.758;6.106;2023-01-08T13:39:03;97675.53;;;8.63;76.42
73151;BME280;61354;50.758;6.106;2023-01-08T13:41:30;97671.59;;;8.64;75.69
73151;BME280;61354;50.758;6.106;2023-01-08T13:44:04;97662.50;;;8.64;75.72
73151;BME280;61354;50.758;6.106;2023-01-08T13:46:33;97658.13;;;8.63;75.32
73151;BME280;61354;50.758;6.106;2023-01-08T13:49:05;97646.66;;;8.61;75.53
73151;BME280;61354;50.758;6.106;2023-01-08T13:56:39;97652.44;;;8.49;76.76
73151;BME280;61354;50.758;6.106;2023-01-08T13:59:05;97650.88;;;8.48;76.50
73151;BME280;61354;50.758;6.106;2023-01-08T14:01:31;97647.31;;;8.47;76.69
73151;BME280;61354;50.758;6.106;2023-01-08T14:03:56;97634.22;;;8.44;76.89
73151;BME280;61354;50.758;6.106;2023-01-08T14:06:26;97629.47;;;8.41;76.34
73151;BME280;61354;50.758;6.106;2023-01-08T14:08:52;97629.47;;;8.41;76.97
73151;BME280;61354;50.758;6.106;2023-01-08T14:11:20;97628.66;;;8.40;77.95
73151;BME280;61354;50.758;6.106;2023-01-08T14:13:47;97615.66;;;8.44;76.79
73151;BME280;61354;50.758;6.106;2023-01-08T14:16:15;97609.78;;;8.46;77.84
73151;BME280;61354;50.758;6.106;2023-01-08T14:18:42;97610.53;;;8.43;78.02
73151;BME280;61354;50.758;6.106;2023-01-08T14:21:08;97599.41;;;8.39;78.63
73151;BME280;61354;50.758;6.106;2023-01-08T14:23:37;97599.81;;;8.41;77.52
73151;BME280;61354;50.758;6.106;2023-01-08T14:26:06;97607.38;;;8.44;77.36
73151;BME280;61354;50.758;6.106;2023-01-08T14:28:34;97601.06;;;8.48;78.06
73151;BME280;61354;50.758;6.106;2023-01-08T14:31:00;97603.06;;;8.47;78.45